Readville, Massachusetts
Current Conditions -  °F | °C
As of 12:53 PM on Sunday 23 Nov 2014 (Local Time) from KOWD Reporting Station
Broken Clouds Broken Clouds  
Wind Chill: 59°   Ceiling: 7500
Heat Index: 59°   Visibility: 10mi
Dew Point: 36°   Wind: 12mph
Humidity: 42%   Direction: 260°W
Pressure: 30.11"   Gusts: NA
Location:  42.24°N, 71.13°W
Report Text: KOWD 231753Z 26010KT 10SM BKN075 15/02 A3011 RMK AO2 SLP197 T01500022 10156 20056 56013
Loading
Personal Weather Stations






























Interactive Weather Map New forecast layout! Learn more

10-Day Weather Forecast

Advertisements
Track Severe Weather on mobile